Terminal Aerodrome Forecast
Issued by NWS

Home | Current Version | Previous Version | Text Only | Print | Product List | Glossary On
Versions: 1 2 3 4 5 6 7 8 9 10 11 12 13
000
FTUS44 KBMX 312300
TAFTOI
TAF
KTOI 312320Z 0100/0124 13003KT P6SM OVC250
     FM011400 14007KT P6SM BKN025
     FM011700 17009KT 6SM -RA BKN007 OVC015
     FM011800 19008KT 4SM RA BR OVC007=

USA.gov is the U.S. government's official web portal to all federal, state and local government web resources and services.